Overview Statistics Trail Chart Weather Telemetry Raw packets
 

This is the latest recevied weather packets stored in our database for station/object N5ATR. If no packets are shown the sender has not sent any weather packets the latest 10 day(s).

<< 80 81 82 83 84 85 86 >>
Time Temp. Humidity Pressure Rain* Wind** Luminosity Snow
1788109921 26.67° C 36% 1024.7 hPa 0 mm - 628 W/m² -
1788109615 26.67° C 36% 1024.4 hPa 0 mm - 619 W/m² -
1788109314 26.11° C 37% 1024.5 hPa 0 mm - 597 W/m² -
1788109009 26.11° C 37% 1024.7 hPa 0 mm - 629 W/m² -
1788108705 25.56° C 37% 1024.6 hPa 0 mm - 480 W/m² -
1788108401 26.11° C 38% 1024.7 hPa 0 mm - 581 W/m² -
1788108097 26.11° C 38% 1024.7 hPa 0 mm - 581 W/m² -
1788107794 25.56° C 39% 1024.7 hPa 0 mm - 596 W/m² -
1788107493 24.44° C 41% 1024.9 hPa 0 mm - 484 W/m² -
1788107188 25° C 40% 1025 hPa 0 mm - 516 W/m² -
1788106885 25° C 40% 1024.9 hPa 0 mm - 516 W/m² -
1788106584 24.44° C 42% 1024.9 hPa 0 mm - 504 W/m² -
1788106279 24.44° C 42% 1025.1 hPa 0 mm - 479 W/m² -
1788105976 23.89° C 43% 1025 hPa 0 mm - 468 W/m² -
1788105670 23.89° C 45% 1025.1 hPa 0 mm - 456 W/m² -
1788105367 23.89° C 46% 1024.7 hPa 0 mm - 382 W/m² -
1788105062 23.33° C 48% 1024.9 hPa 0 mm - 385 W/m² -
1788104757 23.33° C 46% 1025 hPa 0 mm - 407 W/m² -
1788104453 23.33° C 49% 1024.9 hPa 0 mm - 389 W/m² -
1788104149 23.33° C 50% 1025 hPa 0 mm - 387 W/m² -
1788103849 22.78° C 50% 1024.9 hPa 0 mm - 386 W/m² -
1788103543 22.78° C 50% 1024.6 hPa 0 mm - 361 W/m² -
1788103243 22.78° C 50% 1024.5 hPa 0 mm - 342 W/m² -
1788102942 22.78° C 49% 1024.9 hPa 0 mm - 323 W/m² -
1788102637 22.22° C 49% 1024.6 hPa 0 mm - 308 W/m² -

* Rain latest hour (hover to see other rain measurements)
** Current wind speed in m/s (hover to see current wind gust speed)